Time;durP1;ratioP1;P1;durP2;ratioP2;P2;SDS_P1;SDS_P2;PMS_P1;PMS_P2;Temp;Humidity;BMP_temperature;BMP_pressure;BME280_temperature;BME280_humidity;BME280_pressure;Samples;Min_cycle;Max_cycle;Signal;HPM_P1;HPM_P2
2022/09/09 00:00:27;;;;;;;1.00;0.87;;;13.80;99.90;13.70;100134.00;;;;4934071;28;87937;-60
2022/09/09 00:03:08;;;;;;;0.60;0.53;;;13.70;99.90;13.60;100138.00;;;;4931840;28;87779;-60
2022/09/09 00:05:59;;;;;;;0.80;0.80;;;13.70;99.90;13.50;100132.00;;;;4916094;28;88382;-60
2022/09/09 00:08:47;;;;;;;2.37;1.10;;;13.60;99.90;13.50;100139.00;;;;4927542;28;87756;-60
2022/09/09 00:11:47;;;;;;;1.10;1.00;;;13.50;99.90;13.40;100147.00;;;;4916692;28;88043;-60
2022/09/09 00:14:36;;;;;;;0.80;0.80;;;13.50;99.90;13.40;100145.00;;;;4926619;28;88609;-58
2022/09/09 00:17:09;;;;;;;0.90;0.90;;;13.40;99.90;13.30;100138.00;;;;4916600;28;89720;-60
2022/09/09 00:19:45;;;;;;;1.53;1.17;;;13.40;99.90;13.30;100132.00;;;;4914059;28;88436;-60
2022/09/09 00:22:23;;;;;;;0.67;0.60;;;13.50;99.90;13.20;100132.00;;;;4914777;28;88622;-60
2022/09/09 00:24:54;;;;;;;0.97;0.77;;;13.20;99.90;13.20;100130.00;;;;4913843;28;87968;-59
2022/09/09 00:27:41;;;;;;;2.30;1.23;;;13.20;99.90;13.10;100121.00;;;;4917150;28;88771;-60
2022/09/09 00:30:20;;;;;;;1.30;1.20;;;13.10;99.90;13.00;100124.00;;;;4927999;28;92607;-60
2022/09/09 00:32:47;;;;;;;1.57;1.47;;;13.10;99.90;13.00;100132.00;;;;4931024;28;87227;-60
2022/09/09 00:35:34;;;;;;;1.13;0.80;;;13.00;99.90;12.90;100129.00;;;;4933120;28;87933;-59
2022/09/09 00:38:23;;;;;;;1.07;0.97;;;13.00;99.90;12.90;100125.00;;;;4914852;28;89212;-60
2022/09/09 00:40:59;;;;;;;0.97;0.70;;;13.20;99.90;12.80;100133.00;;;;4915956;28;91649;-58
2022/09/09 00:43:30;;;;;;;1.30;0.93;;;12.90;99.90;12.80;100131.00;;;;4911583;28;87927;-59
2022/09/09 00:46:10;;;;;;;0.83;0.77;;;12.80;99.90;12.70;100128.00;;;;4924214;28;88724;-60
2022/09/09 00:48:50;;;;;;;1.13;1.03;;;12.80;99.90;12.70;100127.00;;;;4928189;28;88971;-59
2022/09/09 00:51:46;;;;;;;1.07;0.97;;;12.70;99.90;12.60;100137.00;;;;4929823;28;88501;-60
2022/09/09 00:54:36;;;;;;;1.07;0.97;;;12.60;99.90;12.50;100127.00;;;;4930337;28;88009;-60
2022/09/09 00:57:34;;;;;;;1.67;1.30;;;12.60;99.90;12.50;100137.00;;;;4932704;28;87949;-59
2022/09/09 01:00:19;;;;;;;1.50;1.17;;;12.50;99.90;12.40;100139.00;;;;4930291;28;87053;-60
2022/09/09 01:03:02;;;;;;;1.00;0.93;;;12.50;99.90;12.40;100127.00;;;;4928876;28;87837;-60
2022/09/09 01:06:22;;;;;;;1.57;1.20;;;12.50;99.90;12.30;100136.00;;;;4914077;28;87696;-60
2022/09/09 01:09:16;;;;;;;1.07;0.97;;;12.40;99.90;12.30;100135.00;;;;4914209;28;89158;-60
2022/09/09 01:12:12;;;;;;;1.17;1.03;;;12.40;99.90;12.20;100129.00;;;;4926655;28;88567;-60
2022/09/09 01:14:42;;;;;;;2.00;0.87;;;12.40;99.90;12.20;100126.00;;;;4915855;28;88788;-58
2022/09/09 01:17:34;;;;;;;2.57;1.27;;;12.30;99.90;12.20;100146.00;;;;4931974;28;88025;-61
2022/09/09 01:20:18;;;;;;;2.00;1.23;;;12.30;99.90;12.20;100139.00;;;;4929546;28;87801;-61
2022/09/09 01:23:05;;;;;;;1.17;1.00;;;12.20;99.90;12.10;100143.00;;;;4909052;28;88077;-60
2022/09/09 01:26:08;;;;;;;1.33;1.00;;;12.20;99.90;12.10;100143.00;;;;4926985;28;88510;-61
2022/09/09 01:28:36;;;;;;;1.00;1.00;;;12.20;99.90;12.10;100142.00;;;;4929691;28;87107;-60
2022/09/09 01:31:06;;;;;;;1.13;0.93;;;12.20;99.90;12.10;100145.00;;;;4914100;28;87869;-60
2022/09/09 01:33:31;;;;;;;1.40;1.30;;;12.10;99.90;12.10;100130.00;;;;4934143;28;89026;-61
2022/09/09 01:36:28;;;;;;;1.27;1.17;;;12.10;99.90;12.10;100128.00;;;;4932243;28;117509;-61
2022/09/09 01:38:53;;;;;;;0.93;0.80;;;12.10;99.90;12.10;100138.00;;;;4908133;28;88086;-61
2022/09/09 01:41:19;;;;;;;1.37;0.80;;;12.10;99.90;12.10;100133.00;;;;4914945;28;87862;-61
2022/09/09 01:43:45;;;;;;;1.07;0.97;;;12.10;99.90;12.00;100138.00;;;;4925785;28;114659;-61
2022/09/09 01:46:12;;;;;;;2.30;0.77;;;12.10;99.90;12.00;100129.00;;;;4928427;28;117430;-60
2022/09/09 01:48:39;;;;;;;1.87;1.30;;;12.00;99.90;12.00;100130.00;;;;4915167;28;108061;-60
2022/09/09 01:51:05;;;;;;;1.87;1.60;;;12.00;99.90;11.90;100136.00;;;;4932008;28;87841;-60
2022/09/09 01:53:30;;;;;;;1.80;1.30;;;12.00;99.90;11.90;100135.00;;;;4935120;28;87656;-60
2022/09/09 01:56:41;;;;;;;2.03;1.13;;;12.00;99.90;11.90;100136.00;;;;4913474;28;116414;-61
2022/09/09 01:59:28;;;;;;;1.00;0.90;;;11.90;99.90;11.80;100138.00;;;;4928352;28;87695;-60
2022/09/09 02:02:23;;;;;;;0.93;0.83;;;11.90;99.90;11.80;100144.00;;;;4914606;28;88709;-61
2022/09/09 02:04:55;;;;;;;1.53;1.03;;;11.90;99.90;11.80;100138.00;;;;4925811;28;87891;-61
2022/09/09 02:07:42;;;;;;;0.80;0.73;;;11.80;99.90;11.70;100137.00;;;;4924478;28;88082;-60
2022/09/09 02:10:12;;;;;;;1.00;0.90;;;11.80;99.90;11.80;100140.00;;;;4929771;28;87969;-60
2022/09/09 02:12:49;;;;;;;1.70;1.20;;;11.80;99.90;11.70;100139.00;;;;4915738;28;87751;-60
2022/09/09 02:15:28;;;;;;;1.47;1.00;;;11.80;99.90;11.70;100146.00;;;;4910931;28;90495;-58
2022/09/09 02:17:57;;;;;;;2.27;1.73;;;11.80;99.90;11.70;100134.00;;;;4928162;28;91722;-61
2022/09/09 02:20:27;;;;;;;1.63;1.03;;;11.70;99.90;11.70;100147.00;;;;4909421;28;87259;-61
2022/09/09 02:22:53;;;;;;;3.50;1.03;;;11.70;99.90;11.70;100135.00;;;;4909012;28;87938;-61
2022/09/09 02:25:24;;;;;;;1.10;1.00;;;11.70;99.90;11.70;100136.00;;;;4926349;28;89248;-61
2022/09/09 02:27:51;;;;;;;0.50;0.50;;;11.70;99.90;11.60;100136.00;;;;4929485;28;88843;-61
2022/09/09 02:30:20;;;;;;;1.37;1.27;;;11.70;99.90;11.60;100136.00;;;;4932212;28;87873;-61
2022/09/09 02:32:47;;;;;;;0.77;0.67;;;11.60;99.90;11.60;100133.00;;;;4919266;28;88022;-61
2022/09/09 02:35:19;;;;;;;1.20;1.03;;;11.60;99.90;11.60;100130.00;;;;4914368;28;88872;-61
2022/09/09 02:37:48;;;;;;;1.30;1.20;;;11.60;99.90;11.60;100134.00;;;;4915985;28;88723;-61
2022/09/09 02:40:15;;;;;;;1.83;1.47;;;11.60;99.90;11.50;100138.00;;;;4928722;28;88074;-61
2022/09/09 02:42:43;;;;;;;3.53;1.07;;;11.60;99.90;11.50;100139.00;;;;4917659;28;87892;-60
2022/09/09 02:45:12;;;;;;;0.70;0.60;;;11.60;99.90;11.50;100131.00;;;;4927200;28;88896;-61
2022/09/09 02:48:16;;;;;;;1.20;0.87;;;11.50;99.90;11.50;100133.00;;;;4933452;28;88327;-61
2022/09/09 02:51:06;;;;;;;1.17;0.63;;;11.50;99.90;11.50;100141.00;;;;4918537;28;87795;-60
2022/09/09 02:53:59;;;;;;;0.93;0.60;;;11.50;99.90;11.50;100144.00;;;;4931470;28;88650;-60
2022/09/09 02:56:29;;;;;;;1.93;0.80;;;11.50;99.90;11.50;100143.00;;;;4932499;28;88691;-61
2022/09/09 02:58:55;;;;;;;1.23;1.00;;;11.50;99.90;11.50;100143.00;;;;4918189;28;90008;-61
2022/09/09 03:01:21;;;;;;;1.13;0.80;;;11.50;99.90;11.50;100144.00;;;;4926205;28;109797;-61
2022/09/09 03:03:47;;;;;;;1.13;1.03;;;11.50;99.90;11.50;100142.00;;;;4926047;28;87894;-61
2022/09/09 03:06:14;;;;;;;2.10;1.17;;;11.50;99.90;11.50;100142.00;;;;4928606;28;89051;-61
2022/09/09 03:08:40;;;;;;;1.10;1.00;;;11.50;99.90;11.40;100139.00;;;;4934553;28;88672;-61
2022/09/09 03:11:07;;;;;;;0.97;0.90;;;11.50;99.90;11.40;100140.00;;;;4931464;28;86986;-61
2022/09/09 03:13:33;;;;;;;0.73;0.73;;;11.40;99.90;11.40;100148.00;;;;4934482;28;87594;-61
2022/09/09 03:15:59;;;;;;;1.40;1.00;;;11.40;99.90;11.40;100147.00;;;;4931378;28;88852;-61
2022/09/09 03:18:25;;;;;;;2.73;0.77;;;11.40;99.90;11.30;100146.00;;;;4927444;28;88825;-61
2022/09/09 03:20:51;;;;;;;1.50;1.20;;;11.40;99.90;11.30;100152.00;;;;4927585;28;87997;-61
2022/09/09 03:23:17;;;;;;;1.50;1.20;;;11.30;99.90;11.30;100151.00;;;;4924873;28;87747;-62
2022/09/09 03:25:53;;;;;;;1.57;1.40;;;11.30;99.90;11.20;100152.00;;;;4925071;28;118117;-62
2022/09/09 03:28:20;;;;;;;1.77;1.10;;;11.30;99.90;11.20;100151.00;;;;4927513;28;87799;-61
2022/09/09 03:30:46;;;;;;;2.10;1.07;;;11.30;99.90;11.20;100148.00;;;;4935925;28;87568;-61
2022/09/09 03:33:12;;;;;;;0.80;0.80;;;11.20;99.90;11.20;100159.00;;;;4933032;28;108945;-62
2022/09/09 03:35:39;;;;;;;2.17;1.00;;;11.20;99.90;11.20;100152.00;;;;4931144;28;88208;-61
2022/09/09 03:38:04;;;;;;;0.93;0.83;;;11.20;99.90;11.20;100156.00;;;;4928839;28;88339;-61
2022/09/09 03:40:30;;;;;;;0.70;0.70;;;11.20;99.90;11.10;100144.00;;;;4925264;28;87917;-62
2022/09/09 03:42:56;;;;;;;1.00;0.90;;;11.20;99.90;11.10;100143.00;;;;4922910;28;88960;-61
2022/09/09 03:45:22;;;;;;;1.13;1.03;;;11.20;99.90;11.10;100143.00;;;;4923121;28;116972;-61
2022/09/09 03:47:47;;;;;;;1.20;0.80;;;11.10;99.90;11.10;100138.00;;;;4933984;28;116318;-61
2022/09/09 03:50:13;;;;;;;0.70;0.70;;;11.10;99.90;11.10;100137.00;;;;4937949;28;110027;-62
2022/09/09 03:52:41;;;;;;;2.20;1.43;;;11.10;99.90;11.10;100133.00;;;;4933256;28;106232;-61
2022/09/09 03:55:08;;;;;;;1.17;1.07;;;11.10;99.90;11.00;100130.00;;;;4930691;28;88966;-61
2022/09/09 03:57:35;;;;;;;1.03;0.93;;;11.10;99.90;11.00;100143.00;;;;4928728;28;105574;-62
2022/09/09 04:00:07;;;;;;;2.80;1.57;;;11.10;99.90;11.00;100142.00;;;;4926062;28;87405;-61
2022/09/09 04:02:32;;;;;;;1.50;1.30;;;11.10;99.90;11.00;100141.00;;;;4925102;28;87801;-61
2022/09/09 04:04:59;;;;;;;3.03;1.20;;;11.10;99.90;11.00;100139.00;;;;4923264;28;88698;-61
2022/09/09 04:07:27;;;;;;;2.07;1.43;;;11.00;99.90;11.00;100143.00;;;;4928699;28;89095;-61
2022/09/09 04:09:53;;;;;;;1.57;1.37;;;11.00;99.90;11.00;100145.00;;;;4931799;28;88148;-61
2022/09/09 04:12:19;;;;;;;1.57;1.20;;;11.00;99.90;10.90;100139.00;;;;4930856;28;87944;-61
2022/09/09 04:14:44;;;;;;;1.10;1.00;;;11.00;99.90;10.90;100150.00;;;;4931184;28;118266;-61
2022/09/09 04:17:10;;;;;;;1.67;1.43;;;11.00;99.90;10.90;100153.00;;;;4932203;28;111430;-61
2022/09/09 04:19:36;;;;;;;1.40;1.30;;;11.00;99.90;10.90;100145.00;;;;4933373;28;88015;-62
2022/09/09 04:22:02;;;;;;;1.90;0.87;;;11.00;99.90;10.90;100147.00;;;;4930180;28;108146;-61
2022/09/09 04:24:28;;;;;;;2.97;0.77;;;11.00;99.90;11.00;100152.00;;;;4932728;28;117239;-62
2022/09/09 04:26:55;;;;;;;1.60;1.50;;;11.00;99.90;11.00;100139.00;;;;4918473;28;87578;-61
2022/09/09 04:29:20;;;;;;;2.13;1.17;;;11.10;99.90;11.00;100148.00;;;;4934664;28;87871;-61
2022/09/09 04:31:46;;;;;;;0.97;0.77;;;11.00;99.90;11.00;100152.00;;;;4932177;28;111536;-62
2022/09/09 04:34:12;;;;;;;1.90;1.10;;;11.10;99.90;11.00;100148.00;;;;4932924;28;117976;-61
2022/09/09 04:36:39;;;;;;;2.13;1.93;;;11.10;99.90;11.00;100141.00;;;;4929262;28;116836;-62
2022/09/09 04:39:04;;;;;;;1.70;1.27;;;11.10;99.90;11.00;100150.00;;;;4928880;28;87595;-61
2022/09/09 04:41:31;;;;;;;1.77;1.57;;;11.10;99.90;11.00;100156.00;;;;4931088;28;108694;-61
2022/09/09 04:43:56;;;;;;;1.67;1.20;;;11.10;99.90;11.00;100153.00;;;;4927376;28;87726;-60
2022/09/09 04:46:23;;;;;;;2.77;1.67;;;11.00;99.90;11.00;100161.00;;;;4929314;28;117731;-62
2022/09/09 04:48:49;;;;;;;2.00;1.80;;;11.10;99.90;11.00;100151.00;;;;4930900;28;87134;-61
2022/09/09 04:51:16;;;;;;;1.47;1.20;;;11.10;99.90;11.10;100153.00;;;;4928235;28;87818;-61
2022/09/09 04:53:41;;;;;;;1.87;1.40;;;11.10;99.90;11.10;100158.00;;;;4929839;28;88607;-61
2022/09/09 04:56:13;;;;;;;1.40;1.30;;;11.10;99.90;11.10;100165.00;;;;4924700;28;116383;-61
2022/09/09 04:58:42;;;;;;;1.47;1.17;;;11.10;99.90;11.20;100155.00;;;;4932680;28;88110;-61
2022/09/09 05:01:17;;;;;;;2.00;1.50;;;11.20;99.90;11.30;100148.00;;;;4935179;28;87986;-62
2022/09/09 05:03:45;;;;;;;2.13;1.50;;;11.30;99.90;11.40;100154.00;;;;4933965;28;88351;-61
2022/09/09 05:06:14;;;;;;;1.07;0.90;;;11.40;99.90;11.50;100159.00;;;;4933794;28;88475;-61
2022/09/09 05:08:42;;;;;;;1.20;1.10;;;11.50;99.90;11.60;100157.00;;;;4925536;28;87612;-62
2022/09/09 05:11:24;;;;;;;1.57;1.10;;;11.60;99.90;11.60;100162.00;;;;4926850;28;87684;-61
2022/09/09 05:13:50;;;;;;;1.20;1.10;;;11.60;99.90;11.70;100168.00;;;;4929489;28;88321;-61
2022/09/09 05:16:17;;;;;;;2.00;1.03;;;11.70;99.90;11.70;100162.00;;;;4933077;28;111489;-61
2022/09/09 05:18:43;;;;;;;1.43;1.33;;;11.70;99.90;11.80;100156.00;;;;4933517;28;102387;-61
2022/09/09 05:21:10;;;;;;;4.57;1.57;;;11.80;99.90;11.80;100162.00;;;;4933880;28;91314;-61
2022/09/09 05:23:36;;;;;;;0.97;0.97;;;11.80;99.90;11.90;100163.00;;;;4933939;28;88345;-62
2022/09/09 05:26:04;;;;;;;2.47;0.70;;;11.90;99.90;12.00;100168.00;;;;4934592;28;88888;-61
2022/09/09 05:28:30;;;;;;;3.97;1.10;;;12.00;99.90;12.00;100170.00;;;;4930208;28;87683;-61
2022/09/09 05:31:07;;;;;;;2.63;1.27;;;12.00;99.90;12.10;100181.00;;;;4930134;28;88019;-60
2022/09/09 05:33:35;;;;;;;0.70;0.70;;;12.10;99.90;12.10;100176.00;;;;4928243;28;88788;-61
2022/09/09 05:36:07;;;;;;;1.37;1.17;;;12.20;99.90;12.20;100178.00;;;;4924972;28;87642;-61
2022/09/09 05:38:34;;;;;;;0.97;0.93;;;12.20;99.90;12.30;100184.00;;;;4923192;28;86960;-61
2022/09/09 05:41:02;;;;;;;1.27;0.80;;;12.30;99.90;12.40;100184.00;;;;4923489;28;87817;-61
2022/09/09 05:43:29;;;;;;;0.77;0.77;;;12.40;99.90;12.60;100181.00;;;;4917348;28;88756;-61
2022/09/09 05:46:07;;;;;;;1.23;0.83;;;12.50;99.90;12.80;100183.00;;;;4932289;28;88920;-61
2022/09/09 05:48:37;;;;;;;1.33;0.77;;;12.70;99.90;13.00;100183.00;;;;4926763;28;87793;-61
2022/09/09 05:51:04;;;;;;;2.50;1.10;;;12.80;99.90;13.10;100183.00;;;;4928453;28;87838;-61
2022/09/09 05:53:34;;;;;;;1.10;1.00;;;13.00;99.90;13.40;100183.00;;;;4926766;28;88660;-61
2022/09/09 05:56:16;;;;;;;1.30;1.13;;;13.20;99.90;13.50;100176.00;;;;4928998;28;88069;-61
2022/09/09 05:58:43;;;;;;;1.10;1.00;;;13.40;99.90;13.60;100191.00;;;;4928524;28;87777;-61
2022/09/09 06:01:16;;;;;;;2.00;1.23;;;13.60;99.90;13.70;100187.00;;;;4931350;28;88089;-61
2022/09/09 06:03:44;;;;;;;0.83;0.83;;;13.60;99.90;13.80;100195.00;;;;4925899;28;88237;-61
2022/09/09 06:06:22;;;;;;;2.00;0.90;;;13.70;99.90;13.90;100186.00;;;;4929129;28;87759;-61
2022/09/09 06:08:51;;;;;;;6.73;1.00;;;13.80;99.90;14.00;100192.00;;;;4922725;28;88129;-61
2022/09/09 06:11:23;;;;;;;0.83;0.63;;;14.00;99.90;14.20;100199.00;;;;4927730;28;88922;-61
2022/09/09 06:13:54;;;;;;;0.93;0.67;;;14.10;99.90;14.30;100194.00;;;;4928687;28;88462;-61
2022/09/09 06:16:23;;;;;;;0.63;0.63;;;14.20;99.90;14.50;100201.00;;;;4930283;28;88705;-61
2022/09/09 06:18:50;;;;;;;0.45;0.45;;;14.40;99.90;14.70;100204.00;;;;4934356;28;98528;-60
2022/09/09 06:21:21;;;;;;;2.50;0.80;;;14.60;99.90;15.00;100211.00;;;;4935272;28;88065;-61
2022/09/09 06:23:47;;;;;;;0.35;0.35;;;14.80;99.90;15.10;100204.00;;;;4937092;28;88313;-61
2022/09/09 06:26:30;;;;;;;0.50;0.50;;;15.00;99.90;15.30;100205.00;;;;4925768;28;88205;-61
2022/09/09 06:28:57;;;;;;;2.70;0.80;;;15.20;99.90;15.50;100206.00;;;;4931818;28;87353;-61
2022/09/09 06:31:26;;;;;;;0.90;0.85;;;15.40;99.90;15.60;100200.00;;;;4929550;28;88210;-61
2022/09/09 06:33:54;;;;;;;0.60;0.60;;;15.50;99.90;15.80;100200.00;;;;4928612;28;88145;-61
2022/09/09 06:36:26;;;;;;;0.60;0.57;;;15.70;99.90;15.90;100201.00;;;;4916182;28;89092;-62
2022/09/09 06:38:53;;;;;;;0.22;0.22;;;15.90;99.90;16.10;100205.00;;;;4931859;28;87708;-61
2022/09/09 06:41:20;;;;;;;1.55;0.80;;;16.00;99.90;16.20;100211.00;;;;4935488;28;89830;-60
2022/09/09 06:43:47;;;;;;;1.23;0.60;;;16.10;99.90;16.30;100213.00;;;;4931821;28;90086;-61
2022/09/09 06:46:30;;;;;;;0.30;0.30;;;16.20;99.90;16.40;100214.00;;;;4931979;28;88824;-61
2022/09/09 06:48:58;;;;;;;0.52;0.45;;;16.30;99.90;16.40;100205.00;;;;4933024;28;88100;-61
2022/09/09 06:51:30;;;;;;;0.70;0.60;;;16.30;99.90;16.60;100204.00;;;;4927902;28;87634;-60
2022/09/09 06:53:58;;;;;;;2.35;0.60;;;16.40;99.90;16.70;100209.00;;;;4930721;28;88494;-60
2022/09/09 06:56:30;;;;;;;1.13;0.68;;;16.60;99.90;16.90;100212.00;;;;4930502;28;88153;-61
2022/09/09 06:58:58;;;;;;;0.52;0.52;;;16.70;99.90;17.00;100207.00;;;;4929722;28;102240;-61
2022/09/09 07:01:27;;;;;;;0.50;0.50;;;16.90;99.90;17.20;100211.00;;;;4935924;28;88775;-62
2022/09/09 07:03:57;;;;;;;0.47;0.47;;;17.00;99.90;17.50;100213.00;;;;4929931;28;88704;-61
2022/09/09 07:06:29;;;;;;;1.45;0.80;;;17.30;99.90;17.80;100204.00;;;;4905188;28;87785;-61
2022/09/09 07:08:58;;;;;;;0.30;0.30;;;17.60;99.90;18.10;100216.00;;;;4926179;28;87812;-61
2022/09/09 07:11:27;;;;;;;2.58;0.63;;;17.80;99.90;18.40;100209.00;;;;4929776;28;88080;-61
2022/09/09 07:13:53;;;;;;;1.08;0.98;;;18.30;99.90;18.70;100204.00;;;;4932443;28;88322;-61
2022/09/09 07:16:24;;;;;;;0.50;0.40;;;18.40;99.90;19.00;100209.00;;;;4929457;28;117648;-61
2022/09/09 07:18:50;;;;;;;0.63;0.38;;;18.70;99.90;19.30;100210.00;;;;4933790;28;87214;-61
2022/09/09 07:21:17;;;;;;;0.50;0.50;;;19.00;99.90;19.50;100205.00;;;;4937900;28;88339;-61
2022/09/09 07:23:43;;;;;;;0.63;0.63;;;19.30;99.90;19.70;100213.00;;;;4936002;28;88085;-61
2022/09/09 07:26:21;;;;;;;0.25;0.25;;;19.40;99.90;19.90;100207.00;;;;4923227;28;88760;-61
2022/09/09 07:28:47;;;;;;;0.32;0.32;;;19.60;99.90;20.10;100229.00;;;;4930548;28;88936;-61
2022/09/09 07:31:17;;;;;;;0.40;0.40;;;19.90;99.90;20.40;100214.00;;;;4929613;28;87701;-60
2022/09/09 07:33:44;;;;;;;0.52;0.20;;;20.10;99.90;20.60;100213.00;;;;4932913;28;88948;-61
2022/09/09 07:36:15;;;;;;;1.77;0.60;;;20.40;99.90;20.70;100213.00;;;;4932119;28;88939;-61
2022/09/09 07:38:45;;;;;;;0.30;0.30;;;20.50;99.90;20.90;100212.00;;;;4932864;28;88099;-61
2022/09/09 07:41:17;;;;;;;0.50;0.30;;;20.70;99.90;21.20;100217.00;;;;4933148;28;87736;-61
2022/09/09 07:43:45;;;;;;;0.50;0.50;;;20.90;99.90;21.50;100222.00;;;;4928809;28;88336;-61
2022/09/09 07:46:14;;;;;;;0.30;0.30;;;21.20;99.90;21.90;100226.00;;;;4925892;28;87963;-61
2022/09/09 07:48:51;;;;;;;0.98;0.47;;;21.60;99.90;22.10;100222.00;;;;4933103;28;87798;-61
2022/09/09 07:51:38;;;;;;;0.40;0.20;;;21.90;99.90;22.40;100217.00;;;;4927513;28;88783;-61
2022/09/09 07:54:09;;;;;;;0.28;0.28;;;22.10;99.90;22.70;100222.00;;;;4930191;28;89096;-61
2022/09/09 07:56:35;;;;;;;1.00;0.32;;;22.50;99.90;23.00;100230.00;;;;4932820;28;88634;-61
2022/09/09 07:59:01;;;;;;;0.65;0.30;;;22.80;99.90;23.20;100232.00;;;;4935229;28;87798;-61
2022/09/09 08:01:31;;;;;;;2.08;0.68;;;23.00;99.90;23.30;100237.00;;;;4935520;28;103982;-62
2022/09/09 08:04:03;;;;;;;0.20;0.20;;;23.20;99.90;23.40;100231.00;;;;4925199;28;88469;-62
2022/09/09 08:06:34;;;;;;;0.28;0.20;;;23.30;98.30;23.50;100230.00;;;;4928484;28;96663;-60
2022/09/09 08:09:00;;;;;;;1.13;0.45;;;23.30;96.20;23.50;100236.00;;;;4927076;28;86936;-60
2022/09/09 08:11:28;;;;;;;1.35;0.43;;;23.40;95.60;23.60;100228.00;;;;4927831;28;109559;-60
2022/09/09 08:13:55;;;;;;;0.20;0.20;;;23.50;94.50;23.70;100234.00;;;;4931032;28;88338;-61
2022/09/09 08:16:25;;;;;;;0.40;0.40;;;23.50;93.40;23.60;100256.00;;;;4932397;28;88647;-61
2022/09/09 08:18:53;;;;;;;0.22;0.20;;;23.50;91.50;23.20;100260.00;;;;4932494;28;90038;-61
2022/09/09 08:21:27;;;;;;;3.00;0.40;;;23.20;92.10;22.50;100240.00;;;;4930559;28;87936;-58
2022/09/09 08:23:55;;;;;;;0.28;0.20;;;22.70;92.10;22.00;100250.00;;;;4932300;28;88485;-60
2022/09/09 08:26:30;;;;;;;1.20;0.45;;;22.20;93.90;21.70;100254.00;;;;4922671;28;90767;-60
2022/09/09 08:28:58;;;;;;;0.95;0.45;;;21.80;95.60;21.60;100253.00;;;;4926754;28;89511;-60
2022/09/09 08:31:33;;;;;;;0.68;0.40;;;21.70;96.40;21.60;100254.00;;;;4928847;28;87600;-60
2022/09/09 08:34:00;;;;;;;2.85;0.52;;;21.50;96.50;21.50;100262.00;;;;4929114;28;88181;-61
2022/09/09 08:36:29;;;;;;;0.85;0.40;;;21.40;96.90;21.40;100265.00;;;;4933069;28;88232;-60
2022/09/09 08:38:57;;;;;;;0.30;0.22;;;21.30;97.30;21.40;100262.00;;;;4935480;28;87804;-61
2022/09/09 08:42:03;;;;;;;0.30;0.30;;;21.30;97.60;21.10;100265.00;;;;4933241;28;92914;-60
2022/09/09 08:44:35;;;;;;;2.85;0.30;;;21.20;97.80;21.10;100257.00;;;;4911478;28;88909;-60
2022/09/09 08:47:31;;;;;;;0.73;0.40;;;21.00;98.20;21.00;100248.00;;;;4927836;28;87690;-60
2022/09/09 08:50:24;;;;;;;0.55;0.40;;;20.90;98.60;21.10;100255.00;;;;4915916;28;87819;-59
2022/09/09 08:53:22;;;;;;;0.25;0.25;;;20.90;98.70;21.10;100263.00;;;;4932588;28;87722;-61
2022/09/09 08:55:52;;;;;;;0.93;0.50;;;21.00;99.90;20.90;100254.00;;;;4931712;28;111747;-61
2022/09/09 08:58:29;;;;;;;2.90;0.40;;;20.80;99.90;20.70;100255.00;;;;4916827;28;87826;-61
2022/09/09 09:01:41;;;;;;;0.75;0.50;;;20.60;99.90;20.60;100255.00;;;;4931395;28;87065;-60
2022/09/09 09:04:59;;;;;;;0.45;0.40;;;20.60;99.90;20.80;100253.00;;;;4929968;28;87676;-60
2022/09/09 09:07:53;;;;;;;0.50;0.30;;;20.70;99.90;20.80;100263.00;;;;4915573;28;89139;-60
2022/09/09 09:10:32;;;;;;;0.32;0.30;;;20.70;99.90;21.10;100270.00;;;;4926605;28;88809;-61
2022/09/09 09:12:58;;;;;;;0.20;0.20;;;20.90;99.90;21.30;100266.00;;;;4928275;28;87819;-61
2022/09/09 09:15:28;;;;;;;0.20;0.20;;;21.10;99.90;21.40;100264.00;;;;4909453;28;95409;-61
2022/09/09 09:17:54;;;;;;;0.38;0.15;;;21.20;99.90;21.50;100262.00;;;;4914890;28;111959;-61
2022/09/09 09:20:36;;;;;;;0.20;0.20;;;21.30;99.90;21.50;100265.00;;;;4931074;28;88506;-61
2022/09/09 09:23:05;;;;;;;0.95;0.65;;;21.30;99.90;21.50;100265.00;;;;4916388;28;101353;-61
2022/09/09 09:25:38;;;;;;;0.25;0.25;;;21.30;99.90;21.50;100267.00;;;;4925167;28;87926;-61
2022/09/09 09:28:18;;;;;;;0.00;0.00;;;21.40;99.90;21.50;100280.00;;;;4911625;28;93897;-61
2022/09/09 09:30:57;;;;;;;1.02;0.32;;;21.30;99.90;21.50;100279.00;;;;4927477;28;88126;-61
2022/09/09 09:33:52;;;;;;;0.30;0.30;;;21.30;99.90;21.50;100275.00;;;;4929801;28;87799;-61
2022/09/09 09:36:19;;;;;;;4.00;0.50;;;21.30;99.90;21.60;100269.00;;;;4932578;28;88799;-61
2022/09/09 09:39:03;;;;;;;3.13;0.63;;;21.40;99.90;21.60;100266.00;;;;4931977;28;111567;-61
2022/09/09 09:41:49;;;;;;;0.10;0.10;;;21.40;99.90;21.70;100273.00;;;;4927250;28;88337;-60
2022/09/09 09:44:27;;;;;;;0.65;0.43;;;21.50;99.90;21.60;100280.00;;;;4931763;28;88027;-61
2022/09/09 09:47:14;;;;;;;0.40;0.40;;;21.40;99.90;21.50;100285.00;;;;4928817;28;87695;-61
2022/09/09 09:49:55;;;;;;;0.55;0.20;;;21.50;99.90;21.30;100287.00;;;;4931721;28;88186;-61
2022/09/09 09:52:25;;;;;;;1.00;0.50;;;21.20;99.90;21.00;100280.00;;;;4934187;28;88656;-61
2022/09/09 09:54:52;;;;;;;0.55;0.55;;;21.00;99.90;20.60;100277.00;;;;4918883;28;87464;-61
2022/09/09 09:57:29;;;;;;;1.13;0.75;;;20.60;99.90;20.20;100282.00;;;;4920817;28;87858;-61
2022/09/09 10:00:13;;;;;;;1.75;0.55;;;20.30;99.90;19.80;100294.00;;;;4915324;28;88618;-62
2022/09/09 10:02:43;;;;;;;0.65;0.63;;;19.90;99.90;19.40;100295.00;;;;4934221;28;89026;-61
2022/09/09 10:05:19;;;;;;;0.32;0.17;;;19.70;99.90;19.10;100303.00;;;;4928278;28;87566;-61
2022/09/09 10:07:46;;;;;;;0.55;0.55;;;19.20;99.90;18.90;100297.00;;;;4930143;28;87666;-61
2022/09/09 10:10:55;;;;;;;0.85;0.75;;;18.90;99.90;18.50;100294.00;;;;4932439;28;89112;-62
2022/09/09 10:14:08;;;;;;;2.28;0.50;;;18.60;99.90;18.10;100299.00;;;;4916722;28;87983;-61
2022/09/09 10:17:11;;;;;;;0.98;0.30;;;18.30;99.90;17.80;100308.00;;;;4935176;28;88136;-62
2022/09/09 10:19:42;;;;;;;1.45;0.38;;;17.90;99.90;17.70;100307.00;;;;4930278;28;88057;-61
2022/09/09 10:22:27;;;;;;;10.25;0.50;;;17.70;99.90;17.50;100307.00;;;;4917958;28;102990;-61
2022/09/09 10:25:21;;;;;;;0.20;0.20;;;17.50;99.90;17.40;100300.00;;;;4926833;28;87894;-61
2022/09/09 10:28:26;;;;;;;0.38;0.32;;;17.40;99.90;17.30;100306.00;;;;4927586;28;87800;-62
2022/09/09 10:31:25;;;;;;;1.55;0.70;;;17.30;99.90;17.20;100288.00;;;;4917461;28;88777;-64
2022/09/09 10:34:03;;;;;;;0.35;0.32;;;17.20;99.90;17.20;100300.00;;;;4916160;28;106094;-63
2022/09/09 10:36:29;;;;;;;0.20;0.20;;;17.20;99.90;17.30;100300.00;;;;4914754;28;108042;-63
2022/09/09 10:39:14;;;;;;;0.85;0.28;;;17.20;99.90;17.40;100288.00;;;;4913300;28;88143;-63
2022/09/09 10:42:02;;;;;;;0.40;0.40;;;17.20;99.90;17.40;100288.00;;;;4916226;28;101135;-63
2022/09/09 10:45:01;;;;;;;0.50;0.45;;;17.30;99.90;17.50;100281.00;;;;4910213;28;88807;-63
2022/09/09 10:47:42;;;;;;;0.50;0.30;;;17.30;99.90;17.50;100268.00;;;;4928077;28;88337;-62
2022/09/09 10:50:53;;;;;;;0.28;0.28;;;17.40;99.90;17.70;100277.00;;;;4924071;28;87115;-62
2022/09/09 10:53:49;;;;;;;0.28;0.28;;;17.50;99.90;17.90;100279.00;;;;4918184;28;88204;-62
2022/09/09 10:56:18;;;;;;;2.08;0.70;;;17.70;99.90;18.50;100274.00;;;;4930680;28;88096;-62
2022/09/09 10:59:04;;;;;;;0.32;0.32;;;18.10;99.90;19.00;100281.00;;;;4913615;28;88792;-61
2022/09/09 11:01:49;;;;;;;0.32;0.32;;;18.60;99.90;19.40;100274.00;;;;4931148;28;102032;-61
2022/09/09 11:04:32;;;;;;;0.35;0.35;;;19.00;99.90;19.70;100267.00;;;;4909914;28;87717;-61
2022/09/09 11:07:03;;;;;;;0.40;0.30;;;19.30;99.90;20.20;100267.00;;;;4912899;28;88753;-60
2022/09/09 11:09:36;;;;;;;0.10;0.10;;;19.80;99.90;20.80;100257.00;;;;4917185;28;88053;-60
2022/09/09 11:12:02;;;;;;;0.20;0.20;;;20.30;99.90;21.40;100260.00;;;;4932016;28;87863;-61
2022/09/09 11:14:40;;;;;;;1.08;0.52;;;20.90;99.90;21.90;100265.00;;;;4929282;28;104440;-58
2022/09/09 11:17:20;;;;;;;2.80;0.50;;;21.40;99.90;22.20;100261.00;;;;4912467;28;88111;-61